Time;durP1;ratioP1;P1;durP2;ratioP2;P2;SDS_P1;SDS_P2;PMS_P1;PMS_P2;Temp;Humidity;BMP_temperature;BMP_pressure;BME280_temperature;BME280_humidity;BME280_pressure;Samples;Min_cycle;Max_cycle;Signal;HPM_P1;HPM_P2
2021/12/01 00:01:23;;;;;;;20.20;10.80;;;;;;;9.95;100.00;100036.59;5008317;28;20014;-42
2021/12/01 00:03:49;;;;;;;20.80;12.23;;;;;;;9.98;100.00;100030.44;4994330;28;20460;-42
2021/12/01 00:06:15;;;;;;;20.20;11.48;;;;;;;10.01;100.00;100020.78;5011241;28;20125;-42
2021/12/01 00:08:40;;;;;;;22.13;9.90;;;;;;;10.05;100.00;100017.22;5005493;28;20042;-42
2021/12/01 00:11:06;;;;;;;13.32;7.28;;;;;;;10.10;100.00;100010.19;5008416;28;20108;-42
2021/12/01 00:13:32;;;;;;;12.05;7.40;;;;;;;10.16;100.00;100002.25;5001449;28;20028;-42
2021/12/01 00:15:58;;;;;;;14.52;6.38;;;;;;;10.20;100.00;99996.06;5014346;28;20026;-41
2021/12/01 00:18:23;;;;;;;13.02;6.25;;;;;;;10.20;100.00;99988.25;5000405;28;20076;-42
2021/12/01 00:20:49;;;;;;;9.25;5.15;;;;;;;10.20;100.00;99980.41;5017846;28;20489;-42
2021/12/01 00:23:14;;;;;;;13.15;5.82;;;;;;;10.29;100.00;99971.53;5003832;28;20025;-41
2021/12/01 00:25:42;;;;;;;12.10;6.43;;;;;;;10.30;100.00;99971.53;5008948;28;20505;-42
2021/12/01 00:28:09;;;;;;;11.18;6.03;;;;;;;10.31;100.00;99957.53;5011236;28;20029;-41
2021/12/01 00:30:35;;;;;;;9.05;4.18;;;;;;;10.29;100.00;99959.34;5005162;28;20033;-41
2021/12/01 00:33:01;;;;;;;4.30;2.83;;;;;;;10.27;100.00;99971.56;5004548;28;20030;-42
2021/12/01 00:35:27;;;;;;;2.65;1.85;;;;;;;10.24;100.00;99965.53;5011966;28;20026;-41
2021/12/01 00:37:53;;;;;;;2.60;1.40;;;;;;;10.14;100.00;99954.41;4997746;28;20105;-41
2021/12/01 00:40:19;;;;;;;1.63;1.20;;;;;;;10.06;100.00;99940.66;4997905;28;20129;-42
2021/12/01 00:42:44;;;;;;;2.10;1.00;;;;;;;9.97;100.00;99940.84;5007257;28;20060;-41
2021/12/01 00:45:19;;;;;;;1.67;1.00;;;;;;;9.92;100.00;99953.13;5015509;28;20021;-41
2021/12/01 00:47:55;;;;;;;2.35;1.15;;;;;;;9.86;100.00;99937.59;4997848;28;20471;-42
2021/12/01 00:50:29;;;;;;;0.90;0.90;;;;;;;9.80;100.00;99937.69;4999567;28;20032;-41
2021/12/01 00:53:00;;;;;;;3.20;1.10;;;;;;;9.74;100.00;99937.84;5017102;28;20017;-42
2021/12/01 00:55:26;;;;;;;2.17;1.60;;;;;;;9.71;100.00;99924.84;5006776;28;20022;-41
2021/12/01 00:57:54;;;;;;;1.05;0.90;;;;;;;9.68;100.00;99922.28;5015465;28;20032;-42
2021/12/01 01:00:22;;;;;;;0.82;0.82;;;;;;;9.67;100.00;99916.22;5017120;28;20022;-41
2021/12/01 01:02:47;;;;;;;1.52;1.08;;;;;;;9.61;100.00;99925.91;5002749;28;20030;-41
2021/12/01 01:05:13;;;;;;;1.70;0.90;;;;;;;9.57;100.00;99913.81;5008375;28;20058;-41
2021/12/01 01:07:38;;;;;;;2.75;1.10;;;;;;;9.50;100.00;99896.56;5011602;28;20367;-41
2021/12/01 01:10:29;;;;;;;0.80;0.80;;;;;;;9.44;100.00;99897.53;5016880;28;20453;-41
2021/12/01 01:18:29;;;;;;;1.80;1.13;;;;;;;9.23;100.00;99872.75;5002458;28;20045;-41
2021/12/01 01:20:54;;;;;;;1.55;1.45;;;;;;;9.24;100.00;99876.19;5016686;28;20026;-41
2021/12/01 01:23:20;;;;;;;1.80;1.70;;;;;;;9.22;100.00;99860.59;4999073;28;20553;-42
2021/12/01 01:25:46;;;;;;;2.22;1.73;;;;;;;9.20;100.00;99870.16;4996807;28;20038;-42
2021/12/01 01:28:11;;;;;;;3.10;2.53;;;;;;;9.16;100.00;99850.25;5003290;28;20022;-43
2021/12/01 01:30:36;;;;;;;2.72;2.22;;;;;;;9.14;100.00;99841.63;5004682;28;20019;-42
2021/12/01 01:33:02;;;;;;;2.05;1.95;;;;;;;9.13;100.00;99859.88;5012991;28;20021;-42
2021/12/01 01:35:28;;;;;;;2.67;2.47;;;;;;;9.09;100.00;99835.63;5000924;28;20057;-42
2021/12/01 01:37:54;;;;;;;3.15;2.85;;;;;;;9.10;100.00;99819.13;4998160;28;20053;-42
2021/12/01 01:40:19;;;;;;;5.72;3.40;;;;;;;9.08;100.00;99841.72;4995448;28;20097;-43
2021/12/01 01:42:45;;;;;;;4.68;3.38;;;;;;;9.08;100.00;99805.25;4996955;28;20470;-42
2021/12/01 01:45:11;;;;;;;4.57;3.15;;;;;;;9.03;100.00;99812.31;4997377;28;20497;-42
2021/12/01 01:47:46;;;;;;;3.40;3.10;;;;;;;9.02;100.00;99810.59;5024070;28;20024;-42
2021/12/01 01:50:26;;;;;;;4.20;3.60;;;;;;;9.04;100.00;99808.78;5003989;28;20366;-42
2021/12/01 01:52:52;;;;;;;3.42;3.10;;;;;;;9.00;100.00;99833.19;5014306;28;20372;-42
2021/12/01 01:55:17;;;;;;;4.05;3.30;;;;;;;9.00;100.00;99801.91;4996443;28;20030;-42
2021/12/01 01:57:45;;;;;;;3.53;3.22;;;;;;;8.97;100.00;99786.34;4996552;28;20036;-42
2021/12/01 02:00:12;;;;;;;4.90;3.03;;;;;;;8.95;100.00;99814.19;5009891;28;20023;-42
2021/12/01 02:02:37;;;;;;;3.97;3.38;;;;;;;8.92;100.00;99778.63;4994958;28;20042;-42
2021/12/01 02:05:03;;;;;;;3.60;3.30;;;;;;;8.88;100.00;99776.97;5013078;28;20052;-43
2021/12/01 02:07:29;;;;;;;4.25;3.45;;;;;;;8.89;100.00;99772.63;5015741;28;20033;-42
2021/12/01 02:09:54;;;;;;;4.35;3.33;;;;;;;8.86;100.00;99780.50;5013716;28;20106;-42
2021/12/01 02:12:20;;;;;;;3.75;3.45;;;;;;;8.85;100.00;99757.94;5003492;28;20377;-42
2021/12/01 02:14:45;;;;;;;3.63;3.33;;;;;;;8.83;100.00;99751.91;5001802;28;20022;-42
2021/12/01 02:17:10;;;;;;;3.63;3.33;;;;;;;8.81;100.00;99749.31;5000556;28;20441;-43
2021/12/01 02:19:38;;;;;;;3.50;3.20;;;;;;;8.81;100.00;99727.63;5015720;28;20061;-43
2021/12/01 02:22:03;;;;;;;3.60;3.08;;;;;;;8.77;100.00;99731.16;5011985;28;20085;-43
2021/12/01 02:24:29;;;;;;;4.28;2.95;;;;;;;8.75;100.00;99722.53;5004884;28;20445;-42
2021/12/01 02:26:54;;;;;;;3.05;2.85;;;;;;;8.72;100.00;99706.97;5015031;28;20014;-42
2021/12/01 02:29:23;;;;;;;2.88;2.58;;;;;;;8.73;100.00;99713.88;5015544;28;20018;-42
2021/12/01 02:31:50;;;;;;;2.65;2.33;;;;;;;8.71;100.00;99710.47;5001955;28;20022;-42
2021/12/01 02:34:19;;;;;;;3.08;2.78;;;;;;;8.70;100.00;99693.09;5009126;28;20022;-42
2021/12/01 02:36:48;;;;;;;3.92;3.60;;;;;;;8.67;100.00;99695.78;5007671;28;20041;-41
2021/12/01 02:39:15;;;;;;;3.22;2.97;;;;;;;8.62;100.00;99676.78;5001276;28;20021;-42
2021/12/01 02:41:42;;;;;;;3.38;3.05;;;;;;;8.65;100.00;99680.16;5015153;28;20381;-42
2021/12/01 02:44:09;;;;;;;3.47;3.03;;;;;;;8.62;100.00;99674.16;5014784;28;20026;-43
2021/12/01 02:46:35;;;;;;;3.72;3.10;;;;;;;8.62;100.00;99680.25;5015185;28;20484;-43
2021/12/01 02:49:02;;;;;;;2.95;2.75;;;;;;;8.61;100.00;99612.56;5000835;28;20033;-42
2021/12/01 02:51:30;;;;;;;2.70;2.50;;;;;;;8.54;100.00;99665.63;5008999;28;20026;-42
2021/12/01 02:53:56;;;;;;;4.43;2.88;;;;;;;8.59;100.00;99689.84;4995395;28;20084;-42
2021/12/01 02:56:22;;;;;;;3.45;3.15;;;;;;;8.58;100.00;99636.06;5013407;28;20026;-42
2021/12/01 02:58:49;;;;;;;4.53;2.90;;;;;;;8.56;100.00;99648.25;5014808;28;20122;-43
2021/12/01 03:01:18;;;;;;;3.42;3.13;;;;;;;8.53;100.00;99604.91;5011775;28;20026;-43
2021/12/01 03:03:45;;;;;;;3.42;3.13;;;;;;;8.49;100.00;99611.91;5014697;22;20497;-43
2021/12/01 03:06:11;;;;;;;3.25;2.95;;;;;;;8.51;100.00;99613.66;5015012;28;20053;-42
2021/12/01 03:08:39;;;;;;;3.35;3.05;;;;;;;8.48;100.00;99596.31;5014830;28;20022;-43
2021/12/01 03:11:04;;;;;;;2.92;2.72;;;;;;;8.49;100.00;99559.00;5014533;28;20470;-42
2021/12/01 03:13:30;;;;;;;4.55;3.17;;;;;;;8.48;100.00;99536.44;5014499;28;20030;-42
2021/12/01 03:15:55;;;;;;;3.05;2.75;;;;;;;8.48;100.00;99552.06;5014572;28;20030;-41
2021/12/01 03:18:22;;;;;;;3.17;2.88;;;;;;;8.45;100.00;99573.81;5014720;28;20030;-41
2021/12/01 03:20:49;;;;;;;3.35;2.47;;;;;;;8.46;100.00;99572.94;5014739;28;20040;-41
2021/12/01 03:23:15;;;;;;;3.72;3.42;;;;;;;8.44;100.00;99546.06;5014257;28;20030;-42
2021/12/01 03:25:40;;;;;;;3.80;3.50;;;;;;;8.41;100.00;99546.13;5014825;28;20104;-41
2021/12/01 03:28:07;;;;;;;3.88;3.58;;;;;;;8.44;100.00;99545.22;5014495;28;20065;-41
2021/12/01 03:30:37;;;;;;;4.53;4.13;;;;;;;8.40;100.00;99521.00;5014329;28;20477;-43
2021/12/01 03:33:04;;;;;;;4.70;4.18;;;;;;;8.51;100.00;99540.75;5014729;28;20029;-42
2021/12/01 03:35:30;;;;;;;4.85;4.38;;;;;;;8.53;100.00;99486.91;5014344;28;20014;-42
2021/12/01 03:37:56;;;;;;;5.97;4.00;;;;;;;8.57;100.00;99517.19;5014703;28;20029;-42
2021/12/01 03:40:21;;;;;;;3.80;3.50;;;;;;;8.60;100.00;99514.53;5014381;28;20037;-41
2021/12/01 03:42:47;;;;;;;4.55;4.15;;;;;;;8.57;100.00;99501.56;5014636;28;20053;-41
2021/12/01 03:45:13;;;;;;;5.20;4.07;;;;;;;8.52;100.00;99503.44;5014501;28;20037;-41
2021/12/01 03:47:39;;;;;;;4.65;4.25;;;;;;;8.47;100.00;99488.78;5014299;28;20033;-41
2021/12/01 03:50:06;;;;;;;10.40;4.60;;;;;;;8.43;100.00;99481.06;5014389;28;20438;-41
2021/12/01 03:52:32;;;;;;;6.13;5.18;;;;;;;8.40;100.00;99470.72;5014176;28;20034;-42
2021/12/01 03:54:58;;;;;;;5.53;5.05;;;;;;;8.37;100.00;99466.41;5016936;28;20105;-42
2021/12/01 03:57:24;;;;;;;5.90;5.40;;;;;;;8.34;100.00;99435.25;5018036;28;20028;-42
2021/12/01 03:59:49;;;;;;;8.48;5.97;;;;;;;8.30;100.00;99462.22;5017828;28;20032;-43
2021/12/01 04:02:16;;;;;;;6.57;5.82;;;;;;;8.26;100.00;99439.72;5017915;28;20030;-43
2021/12/01 04:04:41;;;;;;;7.25;6.00;;;;;;;8.24;100.00;99423.28;5017497;28;20041;-42
2021/12/01 04:07:08;;;;;;;5.90;5.40;;;;;;;8.22;100.00;99430.28;5017583;28;20046;-42
2021/12/01 04:09:35;;;;;;;6.22;5.63;;;;;;;8.22;100.00;99412.06;5017360;28;20033;-43
2021/12/01 04:12:00;;;;;;;6.45;5.65;;;;;;;8.22;100.00;99404.25;5017898;28;20477;-42
2021/12/01 04:14:26;;;;;;;6.22;5.65;;;;;;;8.19;100.00;99412.13;5017832;28;20049;-42
2021/12/01 04:16:51;;;;;;;7.45;5.60;;;;;;;8.19;100.00;99404.34;5017327;28;20473;-42
2021/12/01 04:19:17;;;;;;;7.43;5.88;;;;;;;8.19;100.00;99401.72;5017914;28;20026;-42
2021/12/01 04:21:42;;;;;;;6.47;5.40;;;;;;;8.20;100.00;99369.59;5017490;28;20022;-42
2021/12/01 04:24:08;;;;;;;6.40;4.78;;;;;;;8.19;100.00;99388.72;5017769;28;20029;-41
2021/12/01 04:26:35;;;;;;;4.95;4.55;;;;;;;8.24;100.00;99376.44;5017330;28;20053;-41
2021/12/01 04:29:03;;;;;;;5.03;4.60;;;;;;;8.28;100.00;99393.69;5017713;28;20029;-42
2021/12/01 04:31:29;;;;;;;5.95;5.45;;;;;;;8.35;100.00;99400.53;5017545;28;20351;-42
2021/12/01 04:33:55;;;;;;;6.35;5.22;;;;;;;8.30;100.00;99365.94;5017360;28;20087;-42
2021/12/01 04:36:25;;;;;;;5.57;5.07;;;;;;;8.40;100.00;99340.59;5017524;28;20033;-42
2021/12/01 04:38:52;;;;;;;5.10;4.70;;;;;;;8.42;100.00;99352.66;5017354;28;20018;-43
2021/12/01 04:41:18;;;;;;;5.43;4.70;;;;;;;8.43;100.00;99351.78;5017344;28;20384;-42
2021/12/01 04:43:44;;;;;;;5.10;4.63;;;;;;;8.35;100.00;99332.88;5017065;28;20424;-42
2021/12/01 04:46:10;;;;;;;5.78;5.18;;;;;;;8.36;100.00;99323.34;5017134;28;20266;-42
2021/12/01 04:48:36;;;;;;;5.88;5.32;;;;;;;8.36;100.00;99321.56;5016830;28;20113;-42
2021/12/01 04:51:01;;;;;;;5.97;5.47;;;;;;;8.30;100.00;99328.66;5016751;28;20057;-43
2021/12/01 04:53:27;;;;;;;5.85;5.32;;;;;;;8.30;100.00;99313.91;5015684;28;20105;-42
2021/12/01 04:55:53;;;;;;;5.72;5.22;;;;;;;8.35;100.00;99326.81;5016837;28;20033;-42
2021/12/01 04:58:20;;;;;;;4.88;4.47;;;;;;;8.37;100.00;99331.09;5016661;28;20100;-43
2021/12/01 05:00:46;;;;;;;4.85;4.40;;;;;;;8.41;100.00;99327.53;5016706;28;20022;-44
2021/12/01 05:03:11;;;;;;;5.22;3.88;;;;;;;8.41;100.00;99309.31;5016130;28;20096;-43
2021/12/01 05:05:36;;;;;;;3.15;2.88;;;;;;;8.46;100.00;99302.25;5014027;28;20038;-44
2021/12/01 05:08:02;;;;;;;4.38;3.75;;;;;;;8.49;100.00;99296.97;5019015;28;21566;-44
2021/12/01 05:10:28;;;;;;;3.85;3.20;;;;;;;8.51;100.00;99301.28;5027584;28;20544;-43
2021/12/01 05:12:53;;;;;;;4.63;3.00;;;;;;;8.47;100.00;99298.75;5015937;28;20018;-43
2021/12/01 05:15:18;;;;;;;4.03;2.80;;;;;;;8.41;100.00;99217.34;5016019;28;20060;-44
2021/12/01 05:17:44;;;;;;;3.92;2.85;;;;;;;8.44;100.00;99270.19;5016053;28;20056;-45
2021/12/01 05:20:11;;;;;;;3.35;3.05;;;;;;;8.45;100.00;99256.28;5015567;28;20105;-44
2021/12/01 05:22:37;;;;;;;3.58;3.15;;;;;;;8.36;100.00;99251.28;5015747;28;20033;-45
2021/12/01 05:25:03;;;;;;;3.47;2.90;;;;;;;8.41;100.00;99282.41;5015606;28;20030;-44
2021/12/01 05:27:28;;;;;;;3.80;2.53;;;;;;;8.41;100.00;99252.03;5015718;28;20049;-43
2021/12/01 05:29:54;;;;;;;3.40;3.10;;;;;;;8.44;100.00;99259.78;5015298;28;20084;-45
2021/12/01 05:32:20;;;;;;;3.47;2.58;;;;;;;8.44;100.00;99259.78;5009102;28;20378;-44
2021/12/01 05:34:46;;;;;;;4.28;3.75;;;;;;;8.40;100.00;99242.53;5008368;28;20504;-44
2021/12/01 05:37:12;;;;;;;3.95;3.15;;;;;;;8.38;100.00;99241.72;5015313;28;20022;-44
2021/12/01 05:39:41;;;;;;;3.53;2.65;;;;;;;8.32;100.00;99234.03;5015438;28;20022;-46
2021/12/01 05:42:10;;;;;;;4.05;3.00;;;;;;;8.31;100.00;99237.56;5014992;28;20417;-46
2021/12/01 05:44:36;;;;;;;3.10;2.90;;;;;;;8.31;100.00;99227.16;5015424;28;20014;-46
2021/12/01 05:47:01;;;;;;;3.03;2.67;;;;;;;8.35;100.00;99233.13;5014991;28;20041;-46
2021/12/01 05:49:27;;;;;;;3.25;2.78;;;;;;;8.34;100.00;99218.41;5015053;28;20033;-48
2021/12/01 05:51:52;;;;;;;3.97;3.10;;;;;;;8.35;100.00;99202.78;5015143;28;20041;-47
2021/12/01 05:54:18;;;;;;;3.15;2.95;;;;;;;8.33;100.00;99220.16;5015030;28;20021;-47
2021/12/01 05:56:43;;;;;;;5.28;3.17;;;;;;;8.30;100.00;99225.44;5015053;28;20049;-49
2021/12/01 05:59:09;;;;;;;2.72;2.53;;;;;;;8.32;100.00;99207.19;5015016;28;20116;-47
2021/12/01 06:01:34;;;;;;;2.72;2.53;;;;;;;8.33;100.00;99201.06;5013403;28;20022;-48
2021/12/01 06:03:59;;;;;;;3.00;2.60;;;;;;;8.33;100.00;99240.97;5014760;28;20054;-47
2021/12/01 06:06:25;;;;;;;3.55;2.55;;;;;;;8.36;100.00;99199.25;5014618;28;20065;-48
2021/12/01 06:08:50;;;;;;;2.30;2.20;;;;;;;8.40;100.00;99206.09;5015453;28;20038;-49
2021/12/01 06:11:16;;;;;;;2.25;2.08;;;;;;;8.42;100.00;99193.91;5015440;28;20520;-48
2021/12/01 06:13:43;;;;;;;2.83;2.63;;;;;;;8.40;100.00;99193.06;5015120;28;20071;-49
2021/12/01 06:16:08;;;;;;;2.53;2.33;;;;;;;8.42;100.00;99193.91;5014660;28;20026;-47
2021/12/01 06:18:35;;;;;;;2.15;2.05;;;;;;;8.42;100.00;99178.28;5014371;28;20014;-47
2021/12/01 06:21:00;;;;;;;3.10;2.30;;;;;;;8.41;100.00;99205.19;5014731;28;20109;-47
2021/12/01 06:23:26;;;;;;;2.55;2.35;;;;;;;8.42;100.00;99183.50;5014290;28;20149;-48
2021/12/01 06:25:51;;;;;;;5.05;2.72;;;;;;;8.42;100.00;99188.69;5014046;28;20020;-49
2021/12/01 06:28:17;;;;;;;2.80;2.60;;;;;;;8.46;100.00;99179.91;5013852;28;20385;-48
2021/12/01 06:30:42;;;;;;;5.47;3.65;;;;;;;8.48;100.00;99198.94;5013596;28;20029;-48
2021/12/01 06:33:10;;;;;;;4.45;3.35;;;;;;;8.47;100.00;99197.25;5005154;28;20050;-47
2021/12/01 06:35:36;;;;;;;5.35;3.60;;;;;;;8.46;100.00;99169.50;5009875;28;20493;-52
2021/12/01 06:38:03;;;;;;;6.85;4.45;;;;;;;8.49;100.00;99169.41;5012187;28;20021;-52
2021/12/01 06:40:28;;;;;;;8.43;5.05;;;;;;;8.52;100.00;99188.47;5009177;28;20448;-51
2021/12/01 06:42:54;;;;;;;12.02;5.63;;;;;;;8.48;100.00;99172.06;5005679;28;20034;-50
2021/12/01 06:45:20;;;;;;;8.45;5.60;;;;;;;8.52;100.00;99183.25;5006942;28;20096;-52
2021/12/01 06:47:46;;;;;;;7.53;5.40;;;;;;;8.52;100.00;99171.06;5006028;28;20492;-52
2021/12/01 06:50:13;;;;;;;10.23;6.05;;;;;;;8.56;100.00;99164.06;5005677;28;20029;-51
2021/12/01 06:52:38;;;;;;;13.45;7.32;;;;;;;8.61;100.00;99172.59;5003368;28;20014;-51
2021/12/01 06:55:06;;;;;;;11.75;6.93;;;;;;;8.63;100.00;99149.97;5000723;28;20488;-50
2021/12/01 06:57:33;;;;;;;11.80;6.95;;;;;;;8.65;100.00;99156.00;5003396;28;20042;-52
2021/12/01 06:59:59;;;;;;;11.13;5.85;;;;;;;8.68;100.00;99148.94;4998168;28;20030;-50
2021/12/01 07:02:25;;;;;;;13.57;6.20;;;;;;;8.71;100.00;99127.19;4992363;28;20038;-52
2021/12/01 07:04:50;;;;;;;13.10;6.35;;;;;;;8.72;100.00;99157.56;4982256;28;20055;-51
2021/12/01 07:07:16;;;;;;;12.73;7.07;;;;;;;8.77;100.00;99142.63;4983093;28;20040;-50
2021/12/01 07:09:44;;;;;;;14.52;6.95;;;;;;;8.82;100.00;99135.56;4968600;28;20037;-49
2021/12/01 07:12:10;;;;;;;16.98;8.18;;;;;;;8.87;100.00;99151.91;4940141;28;20029;-48
2021/12/01 07:14:36;;;;;;;8.27;5.45;;;;;;;8.88;100.00;99151.00;4932892;28;20033;-51
2021/12/01 07:17:02;;;;;;;14.90;5.78;;;;;;;8.86;100.00;99165.81;4881700;28;20072;-51
2021/12/01 07:19:27;;;;;;;10.25;6.28;;;;;;;8.82;100.00;99145.97;4826446;28;20037;-51
2021/12/01 07:21:53;;;;;;;10.05;6.35;;;;;;;8.80;100.00;99156.41;4740506;28;20029;-60
2021/12/01 07:24:20;;;;;;;13.95;6.72;;;;;;;8.77;100.00;99153.03;4714615;28;20077;-58
2021/12/01 07:26:46;;;;;;;13.80;5.72;;;;;;;8.71;100.00;99129.78;4697225;28;20141;-57
2021/12/01 07:29:11;;;;;;;16.63;7.82;;;;;;;8.69;100.00;99160.22;4641794;28;21244;-61
2021/12/01 07:31:37;;;;;;;18.45;8.13;;;;;;;8.69;100.00;99147.19;4633167;28;20882;-58
2021/12/01 07:34:02;;;;;;;14.07;6.53;;;;;;;8.75;100.00;99149.66;4661891;28;20737;-60
2021/12/01 07:36:27;;;;;;;13.05;6.78;;;;;;;8.77;100.00;99155.66;4733417;28;20085;-57
2021/12/01 07:38:53;;;;;;;12.15;6.18;;;;;;;8.76;100.00;99151.34;4751347;28;21875;-59
2021/12/01 07:41:20;;;;;;;16.65;7.07;;;;;;;8.79;100.00;99140.84;4775078;28;20589;-59
2021/12/01 07:43:45;;;;;;;11.20;6.07;;;;;;;8.67;100.00;99133.38;4791226;28;20212;-60
2021/12/01 07:46:11;;;;;;;14.35;6.68;;;;;;;8.79;100.00;99130.44;4767566;28;21152;-58
2021/12/01 07:48:37;;;;;;;15.13;7.53;;;;;;;8.78;100.00;99120.91;4784274;28;20120;-60
2021/12/01 07:51:03;;;;;;;20.23;8.85;;;;;;;8.83;100.00;99124.25;4805580;28;20040;-58
2021/12/01 07:53:29;;;;;;;26.70;11.07;;;;;;;8.84;100.00;99123.31;4756436;28;20713;-59
2021/12/01 07:55:54;;;;;;;19.95;9.95;;;;;;;8.85;100.00;99120.69;4784880;28;20037;-58
2021/12/01 07:58:19;;;;;;;22.23;9.18;;;;;;;8.87;100.00;99128.47;4828230;28;21635;-59
2021/12/01 08:00:45;;;;;;;18.38;8.70;;;;;;;8.91;100.00;99124.88;4814651;28;20164;-60
2021/12/01 08:03:13;;;;;;;30.88;8.38;;;;;;;8.94;100.00;99124.78;4807600;28;20046;-60
2021/12/01 08:05:39;;;;;;;21.13;7.82;;;;;;;8.91;100.00;99119.69;4832170;28;20191;-57
2021/12/01 08:08:05;;;;;;;19.95;7.93;;;;;;;8.88;100.00;99119.75;4835155;28;20759;-60
2021/12/01 08:10:31;;;;;;;25.00;10.00;;;;;;;8.82;100.00;99140.75;4811608;28;20033;-58
2021/12/01 08:12:59;;;;;;;23.48;8.18;;;;;;;8.78;100.00;99134.78;4810470;28;20046;-61
2021/12/01 08:15:25;;;;;;;20.48;8.30;;;;;;;8.78;100.00;99118.31;4713670;28;20825;-60
2021/12/01 08:17:51;;;;;;;19.80;7.53;;;;;;;8.75;100.00;99111.44;4637874;28;20026;-60
2021/12/01 08:20:17;;;;;;;25.98;8.48;;;;;;;8.73;100.00;99114.97;4510407;28;20034;-60
2021/12/01 08:22:42;;;;;;;19.85;7.93;;;;;;;8.75;100.00;99097.56;4509531;28;24608;-58
2021/12/01 08:25:08;;;;;;;21.67;7.47;;;;;;;8.76;100.00;99120.09;4518614;28;22504;-61
2021/12/01 08:27:33;;;;;;;13.40;5.97;;;;;;;8.66;100.00;99134.28;4640533;28;20911;-61
2021/12/01 08:29:59;;;;;;;12.23;5.05;;;;;;;8.71;100.00;99153.22;4628644;28;22938;-59
2021/12/01 08:32:24;;;;;;;9.80;4.53;;;;;;;8.70;100.00;99130.69;4666091;28;20065;-62
2021/12/01 08:34:51;;;;;;;9.07;3.80;;;;;;;8.68;100.00;99132.50;4691477;28;20417;-61
2021/12/01 08:37:18;;;;;;;4.70;2.72;;;;;;;8.66;100.00;99147.28;4735070;28;21860;-62
2021/12/01 08:39:48;;;;;;;6.35;2.65;;;;;;;8.64;100.00;99133.47;4715276;28;20179;-59
2021/12/01 08:42:22;;;;;;;3.40;2.08;;;;;;;8.68;100.00;99137.69;4691486;28;20042;-60
2021/12/01 08:44:48;;;;;;;6.20;2.78;;;;;;;8.67;100.00;99125.56;4675087;28;21201;-61
2021/12/01 08:47:20;;;;;;;5.78;2.13;;;;;;;8.59;100.00;99148.34;4660289;28;24073;-59
2021/12/01 08:49:47;;;;;;;5.97;2.45;;;;;;;8.46;100.00;99143.47;4646979;28;20601;-61
2021/12/01 08:52:12;;;;;;;6.32;2.30;;;;;;;8.41;100.00;99186.13;4655378;28;23440;-61
2021/12/01 08:54:38;;;;;;;7.57;1.85;;;;;;;8.31;100.00;99221.09;4660034;28;23212;-58
2021/12/01 08:57:04;;;;;;;11.98;2.30;;;;;;;8.10;100.00;99195.56;4645328;28;21594;-59
2021/12/01 08:59:31;;;;;;;12.45;3.17;;;;;;;8.03;100.00;99184.47;4681238;28;22985;-61
2021/12/01 09:01:56;;;;;;;14.20;3.05;;;;;;;8.01;100.00;99191.44;4621707;28;20871;-61
2021/12/01 09:04:21;;;;;;;11.60;2.03;;;;;;;7.98;100.00;99186.31;4621010;28;22832;-58
2021/12/01 09:06:47;;;;;;;11.63;2.13;;;;;;;8.03;100.00;99198.31;4619832;28;20126;-61
2021/12/01 09:09:18;;;;;;;10.52;2.50;;;;;;;8.09;100.00;99205.09;4640654;28;20057;-60
2021/12/01 09:11:47;;;;;;;14.63;2.63;;;;;;;8.14;100.00;99187.66;4641697;28;22579;-61
2021/12/01 09:14:13;;;;;;;14.77;2.67;;;;;;;8.18;100.00;99194.50;4692420;28;21716;-61
2021/12/01 09:16:40;;;;;;;15.25;1.92;;;;;;;8.24;100.00;99178.72;4715634;28;20205;-58
2021/12/01 09:19:06;;;;;;;12.73;2.08;;;;;;;8.29;100.00;99182.09;4667011;28;21040;-60
2021/12/01 09:21:31;;;;;;;7.28;1.85;;;;;;;8.32;100.00;99192.41;4696432;28;20042;-60
2021/12/01 09:23:57;;;;;;;8.60;1.27;;;;;;;8.32;100.00;99202.81;4707964;28;21395;-60
2021/12/01 09:26:22;;;;;;;8.20;1.60;;;;;;;8.34;100.00;99195.84;4695390;28;23251;-61
2021/12/01 09:28:48;;;;;;;11.20;1.30;;;;;;;8.33;100.00;99201.94;4572049;28;21018;-61
2021/12/01 09:31:13;;;;;;;3.90;1.10;;;;;;;8.34;100.00;99192.38;4557925;28;23044;-61
2021/12/01 09:33:39;;;;;;;12.48;2.08;;;;;;;8.40;100.00;99232.09;4640648;23;22143;-57
2021/12/01 09:36:04;;;;;;;5.78;1.10;;;;;;;8.41;100.00;99213.00;4732586;28;21343;-60
2021/12/01 09:38:30;;;;;;;4.72;0.93;;;;;;;8.42;100.00;99208.66;4756615;28;20034;-61
2021/12/01 09:40:57;;;;;;;4.35;1.10;;;;;;;8.42;100.00;99206.91;4784460;28;20069;-60
2021/12/01 09:43:25;;;;;;;5.05;1.05;;;;;;;8.32;100.00;99208.03;4784239;28;20037;-59
2021/12/01 09:45:52;;;;;;;5.45;1.30;;;;;;;8.25;100.00;99206.44;4720954;28;20029;-60
2021/12/01 09:48:17;;;;;;;2.75;0.70;;;;;;;8.31;100.00;99211.53;4707712;28;20033;-61
2021/12/01 09:50:43;;;;;;;9.20;1.70;;;;;;;8.36;100.00;99221.84;4744848;28;20042;-60
2021/12/01 09:53:08;;;;;;;5.88;1.00;;;;;;;8.37;100.00;99221.78;4746176;28;20635;-58
2021/12/01 09:55:35;;;;;;;7.93;1.10;;;;;;;8.46;100.00;99233.72;4714500;28;20034;-59
2021/12/01 09:58:07;;;;;;;7.28;1.33;;;;;;;8.51;100.00;99220.59;4761802;28;20579;-60
2021/12/01 10:00:35;;;;;;;5.68;1.10;;;;;;;8.53;100.00;99222.25;4745123;28;20630;-58
2021/12/01 10:03:01;;;;;;;7.35;1.00;;;;;;;8.42;100.00;99208.66;4710931;28;22179;-60
2021/12/01 10:05:51;;;;;;;3.25;1.25;;;;;;;8.64;100.00;99245.41;4712893;28;21142;-59
2021/12/01 10:08:38;;;;;;;5.57;0.80;;;;;;;8.66;100.00;99235.81;4722186;28;22680;-59
2021/12/01 10:11:15;;;;;;;6.22;1.08;;;;;;;8.61;100.00;99219.44;4690800;28;22506;-61
2021/12/01 10:13:43;;;;;;;6.28;1.60;;;;;;;8.51;100.00;99244.00;4711645;28;21039;-60
2021/12/01 10:16:12;;;;;;;6.72;0.88;;;;;;;8.43;100.00;99232.06;4662362;28;20970;-60
2021/12/01 10:18:46;;;;;;;5.40;0.88;;;;;;;8.15;100.00;99224.94;4452266;28;21712;-60
2021/12/01 10:21:15;;;;;;;6.50;1.30;;;;;;;7.99;100.00;99250.44;4425196;28;21384;-58
2021/12/01 10:23:48;;;;;;;7.38;1.65;;;;;;;7.90;100.00;99235.03;4555225;28;20042;-57
2021/12/01 10:26:17;;;;;;;4.47;0.77;;;;;;;7.86;100.00;99234.25;4666016;28;20187;-58
2021/12/01 10:28:47;;;;;;;4.22;1.15;;;;;;;7.95;100.00;99225.41;4681367;28;21062;-57
2021/12/01 10:31:13;;;;;;;5.10;0.97;;;;;;;8.07;100.00;99216.44;4672252;28;24171;-59
2021/12/01 10:33:39;;;;;;;4.30;0.85;;;;;;;8.14;100.00;99218.00;4646126;28;22078;-57
2021/12/01 10:36:07;;;;;;;8.13;1.45;;;;;;;8.15;100.00;99215.38;4683493;28;20784;-58
2021/12/01 10:38:37;;;;;;;9.43;1.60;;;;;;;8.21;100.00;99207.41;4700103;28;20049;-60
2021/12/01 10:41:14;;;;;;;4.43;1.10;;;;;;;7.98;100.00;99186.31;4672363;28;20622;-62
2021/12/01 10:43:43;;;;;;;7.10;1.10;;;;;;;8.10;100.00;99183.41;4712695;28;21793;-59
2021/12/01 10:46:12;;;;;;;9.77;1.70;;;;;;;8.23;100.00;99197.84;4704550;28;20032;-60
2021/12/01 10:48:40;;;;;;;6.32;0.95;;;;;;;8.34;100.00;99221.88;4736692;28;23008;-57
2021/12/01 10:51:08;;;;;;;7.75;1.10;;;;;;;8.48;100.00;99198.94;4712583;28;20579;-60
2021/12/01 10:53:33;;;;;;;4.13;1.30;;;;;;;8.57;100.00;99207.41;4741627;28;20850;-60
2021/12/01 10:56:02;;;;;;;5.00;1.55;;;;;;;8.62;100.00;99206.41;4701824;28;20313;-57
2021/12/01 10:58:34;;;;;;;12.57;2.05;;;;;;;8.64;100.00;99208.97;4712768;28;21956;-62
2021/12/01 11:01:01;;;;;;;6.10;2.15;;;;;;;8.72;100.00;99218.25;4696588;28;21424;-59
2021/12/01 11:03:30;;;;;;;7.43;1.20;;;;;;;8.66;100.00;99212.38;4658038;28;25523;-60
2021/12/01 11:06:10;;;;;;;5.93;1.90;;;;;;;8.75;100.00;99199.13;4726295;28;20042;-61
2021/12/01 11:08:38;;;;;;;8.52;1.90;;;;;;;8.80;100.00;99189.41;4700805;28;20040;-61
2021/12/01 11:11:13;;;;;;;5.88;1.80;;;;;;;9.07;100.00;99196.50;4678934;28;20078;-60
2021/12/01 11:13:41;;;;;;;4.93;0.98;;;;;;;9.24;100.00;99196.84;4704571;28;20088;-60
2021/12/01 11:16:10;;;;;;;3.22;1.42;;;;;;;9.28;100.00;99208.03;4683038;28;20132;-60
2021/12/01 11:18:39;;;;;;;8.43;2.28;;;;;;;9.07;100.00;99216.47;4754653;28;48381;-60
2021/12/01 11:21:18;;;;;;;4.00;0.90;;;;;;;8.89;100.00;99225.63;4798880;28;20367;-59
2021/12/01 11:23:53;;;;;;;13.82;1.27;;;;;;;9.25;100.00;99198.56;4818263;28;20042;-59
2021/12/01 11:26:21;;;;;;;7.30;1.30;;;;;;;9.30;100.00;99196.66;4799723;28;20164;-59
2021/12/01 11:28:50;;;;;;;4.43;1.23;;;;;;;9.19;100.00;99198.75;4825184;28;20703;-60
2021/12/01 11:31:19;;;;;;;9.75;2.75;;;;;;;9.09;100.00;99191.22;4812203;28;20653;-60
2021/12/01 11:33:46;;;;;;;3.80;1.00;;;;;;;9.22;100.00;99203.88;4804756;28;20050;-59
2021/12/01 11:36:16;;;;;;;7.47;1.55;;;;;;;9.10;100.00;99188.56;4802226;28;20389;-58